首页
METAR-TAF:

METAR-TAF

机场 :

弗洛里亚诺波利斯, 圣卡塔琳娜州, 巴西

纬度: 27-40S, 经度: 048-33W, 海拔: 5米

当前天气观测

该预报发布于38分钟前的02:00 UTC
风速4节,风向北转东北
温度 19°C
湿度 73%
气压 1018 hPa
能见度10公里或以上
多云层高于3500英尺

METAR: SBFL 220200Z 02004KT 9999 BKN035 19/14 Q1018

时间: 00:38 (02:38 UTC)

预报

该预报发布于4小时和23分钟前的22:15 UTC
预报有效从22日的 00点(UTC)到 22日的 24点(UTC)
风速7节,风向东北
能见度10公里或以上
多云层高于4500英尺
成为
从 22日的 00点(UTC)到 22日的 02点(UTC)
风速5节,风向
成为
从 22日的 11点(UTC)到 22日的 13点(UTC)
风速13节,风向
少量云层高于4000英尺

TAF: SBFL 212215Z 2200/2224 05007KT 9999 BKN045 TN17/2207Z TX24/2215Z BECMG 2200/2202 35005KT BECMG 2211/2213 36013KT FEW040 RMK PCX

超过4000个机场的气象观测和天气预报(METAR&TAF报告)。

可查询的气象台以黄色和红色小点在地图上表示。

将鼠标移到小点上方,可查看气象台名称。

然后点击查看天气观测和预报。

如需切换地图:点击带黑十字的绿色按钮放大地图;点击带横线的绿色按钮缩小地图;或者点击绿色箭头查看邻近地区的地图。


METAR-TAF: